Time;durP1;ratioP1;P1;durP2;ratioP2;P2;SDS_P1;SDS_P2;PMS_P1;PMS_P2;Temp;Humidity;BMP_temperature;BMP_pressure;BME280_temperature;BME280_humidity;BME280_pressure;Samples;Min_cycle;Max_cycle;Signal;HPM_P1;HPM_P2
2023/09/23 00:00:24;;;;;;;;;2.67;2.00;;;;;27.71;47.67;100932.13;5057652;28;45366;-76
2023/09/23 00:02:49;;;;;;;;;1.67;1.67;;;;;27.63;47.36;100919.06;5057526;28;45371;-76
2023/09/23 00:05:16;;;;;;;;;0.67;0.33;;;;;27.49;47.24;100903.13;5057894;28;45543;-74
2023/09/23 00:07:43;;;;;;;;;3.00;2.00;;;;;27.70;47.27;100933.19;5057633;28;45323;-75
2023/09/23 00:10:09;;;;;;;;;4.00;1.33;;;;;27.65;46.91;100926.84;5057187;28;45237;-75
2023/09/23 00:12:36;;;;;;;;;3.00;2.00;;;;;27.71;47.16;100937.47;5057675;28;45464;-74
2023/09/23 00:15:03;;;;;;;;;2.00;2.00;;;;;27.61;46.92;100916.59;5057791;28;45399;-75
2023/09/23 00:17:28;;;;;;;;;4.00;2.00;;;;;27.44;46.97;100894.94;5057240;28;46339;-75
2023/09/23 00:19:54;;;;;;;;;2.00;1.00;;;;;27.60;47.66;100930.19;5057779;28;45383;-75
2023/09/23 00:22:20;;;;;;;;;1.67;1.00;;;;;27.55;46.75;100920.16;5055703;28;45399;-76
2023/09/23 00:24:46;;;;;;;;;1.67;1.67;;;;;27.68;47.54;100939.78;5057332;28;45778;-74
2023/09/23 00:27:12;;;;;;;;;1.00;1.00;;;;;27.72;46.64;100949.00;5055826;28;46918;-75
2023/09/23 00:29:38;;;;;;;;;2.00;2.00;;;;;27.63;46.89;100945.78;5057529;28;45464;-75
2023/09/23 00:32:04;;;;;;;;;1.00;1.00;;;;;27.70;47.40;100954.56;5057201;28;45316;-75
2023/09/23 00:34:29;;;;;;;;;4.33;1.33;;;;;27.67;46.96;100949.66;5057468;28;45392;-76
2023/09/23 00:36:55;;;;;;;;;1.00;1.00;;;;;27.70;46.91;100959.91;5057132;28;46091;-75
2023/09/23 00:39:20;;;;;;;;;2.00;1.00;;;;;27.59;47.31;100929.34;5056899;28;45489;-76
2023/09/23 00:41:46;;;;;;;;;3.00;1.00;;;;;27.58;47.03;100930.41;5057018;28;45831;-75
2023/09/23 00:44:11;;;;;;;;;1.00;1.00;;;;;27.50;47.19;100931.50;5057176;28;45652;-75
2023/09/23 00:46:37;;;;;;;;;2.00;1.00;;;;;27.68;47.54;100962.00;5056760;28;45385;-75
2023/09/23 00:49:09;;;;;;;;;3.00;2.00;;;;;27.36;47.25;100914.72;5057228;28;45387;-76
2023/09/23 00:51:37;;;;;;;;;2.00;2.00;;;;;27.63;47.20;100975.19;5057088;28;45375;-74
2023/09/23 00:54:10;;;;;;;;;0.00;0.00;;;;;27.61;45.32;100971.91;5056895;28;45386;-78
2023/09/23 00:56:36;;;;;;;;;3.00;2.00;;;;;27.23;46.29;100923.63;5056516;28;46693;-83
2023/09/23 00:59:05;;;;;;;;;2.00;1.00;;;;;27.39;45.69;100945.53;5039550;28;45538;-80
2023/09/23 01:01:31;;;;;;;;;0.67;0.67;;;;;27.40;44.97;100953.31;5051875;28;45333;-80
2023/09/23 01:03:56;;;;;;;;;2.00;0.33;;;;;27.40;44.28;100958.66;5057804;28;45436;-81
2023/09/23 01:06:22;;;;;;;;;0.00;0.00;;;;;27.42;44.24;100966.47;5056268;28;46940;-81
2023/09/23 01:08:50;;;;;;;;;1.00;1.00;;;;;27.44;45.11;100979.59;5053273;28;45256;-80
2023/09/23 01:11:17;;;;;;;;;4.00;1.00;;;;;27.32;44.16;100966.13;5037857;28;45381;-80
2023/09/23 01:13:45;;;;;;;;;1.00;1.00;;;;;27.42;44.16;100981.69;5037496;28;45502;-81
2023/09/23 01:16:12;;;;;;;;;1.00;1.00;;;;;27.27;44.26;100972.09;5036288;28;45389;-80
2023/09/23 01:18:39;;;;;;;;;1.00;1.00;;;;;27.07;44.18;100948.94;5037600;28;45429;-80
2023/09/23 01:21:07;;;;;;;;;1.67;1.00;;;;;27.12;44.25;100961.63;5036262;28;45428;-80
2023/09/23 01:23:36;;;;;;;;;1.33;1.33;;;;;27.20;43.99;100955.28;5037208;28;45344;-81
2023/09/23 01:26:04;;;;;;;;;0.33;0.33;;;;;27.39;44.04;100983.75;5037370;28;46239;-80
2023/09/23 01:28:32;;;;;;;;;1.00;1.00;;;;;27.24;43.63;100968.00;5037203;28;45501;-80
2023/09/23 01:30:59;;;;;;;;;2.67;1.00;;;;;27.26;43.70;100973.94;5037499;28;45522;-80
2023/09/23 01:33:26;;;;;;;;;0.00;0.00;;;;;27.32;43.66;100987.50;5035982;28;45366;-80
2023/09/23 01:35:55;;;;;;;;;1.00;1.00;;;;;27.24;43.77;100972.53;5037131;28;45285;-80
2023/09/23 01:38:21;;;;;;;;;0.00;0.00;;;;;27.31;43.89;100986.66;5037141;28;45395;-80
2023/09/23 01:40:47;;;;;;;;;3.00;1.00;;;;;27.32;43.63;100990.16;5037264;28;45317;-80
2023/09/23 01:43:12;;;;;;;;;1.67;0.00;;;;;27.31;44.02;101001.88;5052819;28;45389;-80
2023/09/23 01:45:38;;;;;;;;;0.33;0.33;;;;;26.49;43.25;100861.47;5056783;28;45336;-80
2023/09/23 01:48:04;;;;;;;;;1.67;1.00;;;;;27.31;43.37;101005.34;5056972;28;45466;-80
2023/09/23 01:50:29;;;;;;;;;0.00;0.00;;;;;26.96;43.43;100967.25;5056784;28;45402;-80
2023/09/23 01:53:01;;;;;;;;;1.67;1.67;;;;;27.13;43.60;100995.38;5056966;28;45277;-81
2023/09/23 01:55:27;;;;;;;;;1.00;1.00;;;;;27.07;43.76;100987.13;5056900;28;46501;-81
2023/09/23 01:57:53;;;;;;;;;1.33;0.33;;;;;26.91;43.56;100964.41;5056570;28;45435;-81
2023/09/23 02:00:21;;;;;;;;;0.67;0.67;;;;;27.09;43.35;100999.47;5056954;28;45597;-80
2023/09/23 02:02:53;;;;;;;;;3.00;1.00;;;;;27.04;43.34;100992.91;5057036;28;45280;-79
2023/09/23 02:05:20;;;;;;;;;0.00;0.00;;;;;27.23;43.50;101027.78;5056448;28;46211;-80
2023/09/23 02:07:47;;;;;;;;;2.00;1.00;;;;;27.23;43.65;101033.13;5055741;28;45391;-80
2023/09/23 02:10:15;;;;;;;;;0.00;0.00;;;;;27.21;43.24;101029.84;5056573;28;45223;-80
2023/09/23 02:12:44;;;;;;;;;1.00;0.00;;;;;27.23;43.55;101034.97;5056659;28;45399;-80
2023/09/23 02:15:10;;;;;;;;;0.00;0.00;;;;;26.66;43.57;100933.06;5056504;28;47083;-80
2023/09/23 02:17:36;;;;;;;;;1.00;1.00;;;;;27.04;43.63;101003.56;5056573;28;45533;-80
2023/09/23 02:20:12;;;;;;;;;0.67;0.67;;;;;26.81;43.25;100972.84;5056241;28;45321;-80
2023/09/23 02:22:37;;;;;;;;;0.00;0.00;;;;;27.03;43.62;101012.63;5056638;28;45220;-80
2023/09/23 02:25:04;;;;;;;;;1.67;1.00;;;;;27.19;43.47;101050.63;5056238;28;47106;-80
2023/09/23 02:27:29;;;;;;;;;1.33;1.00;;;;;26.99;43.40;101015.91;5056507;28;45507;-80
2023/09/23 02:29:55;;;;;;;;;0.00;0.00;;;;;27.03;43.63;101034.00;5057235;28;45343;-80
2023/09/23 02:32:20;;;;;;;;;1.00;0.67;;;;;27.02;43.24;101039.53;5056761;28;45707;-80
2023/09/23 02:34:45;;;;;;;;;2.67;1.00;;;;;27.09;43.47;101058.22;5056157;28;45433;-80
2023/09/23 02:37:11;;;;;;;;;0.00;0.00;;;;;27.17;43.05;101069.50;5056807;28;45347;-80
2023/09/23 02:39:36;;;;;;;;;4.00;1.00;;;;;26.85;42.71;101019.44;5056533;28;45674;-80
2023/09/23 02:42:04;;;;;;;;;0.67;0.67;;;;;27.17;42.79;101066.00;5056300;28;45487;-80
2023/09/23 02:44:30;;;;;;;;;0.67;0.00;;;;;27.00;42.88;101049.59;5056164;28;46416;-80
2023/09/23 02:46:55;;;;;;;;;0.00;0.00;;;;;26.82;42.87;101016.38;5056099;28;45335;-79
2023/09/23 02:49:21;;;;;;;;;0.00;0.00;;;;;26.94;43.19;101038.72;5054535;28;45392;-80
2023/09/23 02:51:49;;;;;;;;;1.00;1.00;;;;;27.15;42.77;101076.09;5056254;28;45227;-80
2023/09/23 02:54:17;;;;;;;;;1.00;1.00;;;;;27.03;42.71;101060.69;5055909;28;46175;-80
2023/09/23 02:56:45;;;;;;;;;0.00;0.00;;;;;27.02;42.56;101064.38;5055831;28;45617;-81
2023/09/23 02:59:13;;;;;;;;;0.00;0.00;;;;;27.13;43.00;101087.00;5055841;28;45297;-80
2023/09/23 03:01:44;;;;;;;;;0.00;0.00;;;;;26.95;43.07;101064.41;5056046;28;45586;-80
2023/09/23 03:04:16;;;;;;;;;0.33;0.00;;;;;27.04;43.12;101082.84;5055116;28;45376;-81
2023/09/23 03:06:49;;;;;;;;;0.00;0.00;;;;;27.12;43.39;101096.00;5055657;28;45327;-80
2023/09/23 03:09:23;;;;;;;;;0.67;0.00;;;;;26.95;43.08;101075.09;5055801;28;45461;-80
2023/09/23 03:11:53;;;;;;;;;1.00;1.00;;;;;27.02;42.76;101093.75;5055833;28;45319;-79
2023/09/23 03:14:25;;;;;;;;;0.00;0.00;;;;;27.02;43.20;101092.94;5055840;28;47334;-79
2023/09/23 03:16:53;;;;;;;;;0.00;0.00;;;;;27.08;43.80;101110.81;5055757;28;45433;-80
2023/09/23 03:19:24;;;;;;;;;0.00;0.00;;;;;26.75;43.25;101053.78;5060619;28;45422;-80
2023/09/23 03:21:51;;;;;;;;;0.00;0.00;;;;;26.76;42.70;101066.06;5062537;28;45407;-80
2023/09/23 03:24:17;;;;;;;;;0.00;0.00;;;;;26.76;43.17;101068.75;5062637;28;46702;-80
2023/09/23 03:26:46;;;;;;;;;0.00;0.00;;;;;26.97;42.76;101106.91;5062375;28;45330;-80
2023/09/23 03:29:13;;;;;;;;;1.67;1.00;;;;;26.58;43.21;101046.19;5062426;28;45438;-80
2023/09/23 03:31:38;;;;;;;;;0.67;0.67;;;;;26.91;43.19;101100.53;5062249;28;45307;-80
2023/09/23 03:34:05;;;;;;;;;1.00;1.00;;;;;26.96;43.30;101103.41;5061649;28;46391;-80
2023/09/23 03:36:31;;;;;;;;;0.67;0.67;;;;;26.92;42.96;101099.53;5062195;28;45486;-80
2023/09/23 03:39:00;;;;;;;;;0.00;0.00;;;;;27.04;42.43;101121.06;5062326;28;45506;-80
2023/09/23 03:41:29;;;;;;;;;0.00;0.00;;;;;27.05;42.87;101127.22;5062333;28;45257;-80
2023/09/23 03:43:54;;;;;;;;;0.33;0.33;;;;;26.70;42.47;101073.06;5061007;28;46991;-80
2023/09/23 03:46:19;;;;;;;;;2.00;1.00;;;;;27.04;42.47;101123.75;5061802;28;45351;-80
2023/09/23 03:48:45;;;;;;;;;1.33;1.33;;;;;27.05;42.24;101125.38;5061960;28;45515;-80
2023/09/23 03:51:10;;;;;;;;;1.00;1.00;;;;;26.90;42.84;101109.59;5062186;28;45419;-80
2023/09/23 03:53:36;;;;;;;;;0.00;0.00;;;;;26.70;42.71;101080.25;5061739;28;46637;-81
2023/09/23 03:56:03;;;;;;;;;0.00;0.00;;;;;26.95;42.88;101123.16;5062166;28;45426;-81
2023/09/23 03:58:28;;;;;;;;;0.00;0.00;;;;;25.98;42.67;100970.47;5062045;28;45463;-80
2023/09/23 04:00:56;;;;;;;;;0.67;0.67;;;;;27.05;42.38;101132.56;5061664;28;45520;-79
2023/09/23 04:03:22;;;;;;;;;1.67;0.67;;;;;26.86;43.04;101103.00;5061632;28;46557;-81
2023/09/23 04:05:57;;;;;;;;;0.00;0.00;;;;;27.02;42.46;101136.47;5061826;28;45291;-80
2023/09/23 04:08:23;;;;;;;;;0.00;0.00;;;;;26.91;42.92;101129.91;5061973;28;45359;-81
2023/09/23 04:10:48;;;;;;;;;0.00;0.00;;;;;26.85;42.34;101115.53;5061644;28;45351;-80
2023/09/23 04:13:14;;;;;;;;;1.00;1.00;;;;;26.76;43.13;101105.28;5061717;28;47120;-80
2023/09/23 04:15:39;;;;;;;;;1.00;1.00;;;;;26.73;42.75;101123.34;5061413;28;45558;-80
2023/09/23 04:18:05;;;;;;;;;1.33;1.00;;;;;27.00;42.99;101154.56;5062007;28;45466;-80
2023/09/23 04:20:32;;;;;;;;;0.67;0.67;;;;;26.58;42.73;101104.88;5061895;28;45284;-80
2023/09/23 04:22:57;;;;;;;;;0.00;0.00;;;;;26.85;42.11;101138.75;5061721;28;45305;-80
2023/09/23 04:25:23;;;;;;;;;1.00;0.00;;;;;26.93;42.74;101159.09;5060535;28;45305;-80
2023/09/23 04:27:52;;;;;;;;;2.67;0.00;;;;;27.01;42.83;101166.06;5060668;28;45414;-80
2023/09/23 04:30:17;;;;;;;;;0.00;0.00;;;;;26.93;42.33;101159.09;5058431;28;45410;-80
2023/09/23 04:32:43;;;;;;;;;0.00;0.00;;;;;26.72;42.37;101123.56;5058143;28;46057;-80
2023/09/23 04:35:11;;;;;;;;;1.00;1.00;;;;;27.00;42.90;101170.59;5058404;28;45157;-80
2023/09/23 04:37:37;;;;;;;;;1.00;0.00;;;;;26.84;43.04;101153.13;5058392;28;45441;-80
2023/09/23 04:40:11;;;;;;;;;0.00;0.00;;;;;26.99;42.55;101181.44;5058285;28;45533;-79
2023/09/23 04:42:41;;;;;;;;;0.00;0.00;;;;;26.99;42.51;101192.13;5057869;28;47057;-80
2023/09/23 04:45:10;;;;;;;;;0.00;0.00;;;;;26.99;42.61;101198.31;5058011;28;45285;-79
2023/09/23 04:47:36;;;;;;;;;2.33;1.00;;;;;26.99;42.15;101197.47;5058143;27;45410;-80
2023/09/23 04:50:05;;;;;;;;;0.00;0.00;;;;;26.95;42.13;101194.41;5058095;28;45435;-80
2023/09/23 04:52:34;;;;;;;;;0.00;0.00;;;;;26.72;42.86;101163.59;5057786;28;46809;-80
2023/09/23 04:55:00;;;;;;;;;0.00;0.00;;;;;26.98;42.56;101204.69;5058257;28;45468;-80
2023/09/23 04:57:26;;;;;;;;;1.00;0.00;;;;;26.76;42.76;101172.84;5057934;28;45466;-80
2023/09/23 04:59:52;;;;;;;;;1.00;1.00;;;;;26.81;42.24;101183.72;5057273;28;45363;-80
2023/09/23 05:02:18;;;;;;;;;0.00;0.00;;;;;26.86;42.07;101188.44;5057792;28;45387;-80
2023/09/23 05:04:47;;;;;;;;;2.00;0.67;;;;;26.74;42.41;101169.56;5057619;28;45347;-80
2023/09/23 05:07:15;;;;;;;;;1.00;0.00;;;;;26.98;42.41;101210.03;5057961;28;45224;-80
2023/09/23 05:09:41;;;;;;;;;0.00;0.00;;;;;26.87;42.03;101192.75;5057719;28;45379;-79
2023/09/23 05:12:10;;;;;;;;;0.00;0.00;;;;;26.95;42.17;101213.09;5057251;28;45556;-79
2023/09/23 05:14:36;;;;;;;;;0.00;0.00;;;;;26.99;42.07;101219.66;5057291;28;45356;-79
2023/09/23 05:17:04;;;;;;;;;0.00;0.00;;;;;26.98;41.93;101217.22;5057574;28;45323;-79
2023/09/23 05:19:33;;;;;;;;;0.00;0.00;;;;;26.78;42.53;101197.47;5057483;28;45612;-79
2023/09/23 05:21:59;;;;;;;;;0.00;0.00;;;;;26.48;42.52;101158.66;5057897;28;45372;-80
2023/09/23 05:24:27;;;;;;;;;0.00;0.00;;;;;26.71;42.14;101201.97;5057449;28;45403;-80
2023/09/23 05:26:55;;;;;;;;;0.00;0.00;;;;;26.57;42.66;101180.63;5057604;28;45285;-80
2023/09/23 05:29:21;;;;;;;;;0.00;0.00;;;;;26.75;42.13;101216.59;5057258;28;45369;-80
2023/09/23 05:31:47;;;;;;;;;1.00;1.00;;;;;26.71;41.99;101216.16;5057126;28;47196;-80
2023/09/23 05:34:12;;;;;;;;;0.00;0.00;;;;;26.92;42.84;101261.56;5057403;28;45455;-80
2023/09/23 05:36:37;;;;;;;;;1.67;1.00;;;;;25.69;42.74;101068.34;5057468;28;45413;-80
2023/09/23 05:39:13;;;;;;;;;0.00;0.00;;;;;26.79;42.58;101249.84;5056237;28;45503;-79
2023/09/23 05:41:39;;;;;;;;;0.00;0.00;;;;;26.53;42.54;101211.41;5057161;28;47145;-79
2023/09/23 05:44:05;;;;;;;;;0.00;0.00;;;;;26.84;42.63;101266.06;5056932;28;45399;-79
2023/09/23 05:46:30;;;;;;;;;1.00;1.00;;;;;26.85;42.33;101264.22;5057355;28;45279;-80
2023/09/23 05:48:57;;;;;;;;;0.67;0.00;;;;;26.74;42.18;101257.63;5057030;28;45411;-80
2023/09/23 05:51:22;;;;;;;;;0.00;0.00;;;;;26.77;42.03;101265.25;5056828;28;45247;-80
2023/09/23 05:53:48;;;;;;;;;1.00;1.00;;;;;26.67;41.90;101254.13;5056951;28;45217;-80
2023/09/23 05:56:14;;;;;;;;;2.00;0.00;;;;;26.87;42.51;101282.69;5056921;28;45275;-80
2023/09/23 05:58:39;;;;;;;;;0.33;0.33;;;;;26.65;42.54;101248.19;5056395;28;45384;-80
2023/09/23 06:01:05;;;;;;;;;0.00;0.00;;;;;26.83;42.05;101277.75;5057117;28;45615;-80
2023/09/23 06:03:30;;;;;;;;;1.00;0.00;;;;;26.75;42.28;101267.31;5056775;28;45464;-79
2023/09/23 06:05:56;;;;;;;;;0.00;0.00;;;;;26.61;42.24;101256.59;5057029;28;45462;-80
2023/09/23 06:08:21;;;;;;;;;1.00;1.00;;;;;26.94;41.77;101318.25;5056964;28;45343;-79
2023/09/23 06:10:47;;;;;;;;;0.00;0.00;;;;;26.46;42.28;101243.41;5056730;28;46276;-79
2023/09/23 06:13:13;;;;;;;;;0.33;0.33;;;;;26.95;41.79;101325.25;5056363;28;45508;-79
2023/09/23 06:15:39;;;;;;;;;0.00;0.00;;;;;26.94;41.84;101335.09;5056749;28;45437;-79
2023/09/23 06:18:06;;;;;;;;;0.00;0.00;;;;;26.85;41.89;101325.63;5056483;28;45383;-79
2023/09/23 06:20:33;;;;;;;;;0.00;0.00;;;;;26.93;42.34;101344.09;5056328;28;45762;-79
2023/09/23 06:22:58;;;;;;;;;1.00;0.00;;;;;26.92;41.80;101341.66;5056795;28;45309;-80
2023/09/23 06:25:24;;;;;;;;;0.00;0.00;;;;;26.73;42.15;101320.03;5056571;28;45271;-80
2023/09/23 06:27:49;;;;;;;;;0.67;0.67;;;;;26.80;41.61;101334.25;5056354;28;45461;-79
2023/09/23 06:30:15;;;;;;;;;0.00;0.00;;;;;26.76;41.69;101324.16;5056641;28;46642;-80
2023/09/23 06:32:44;;;;;;;;;0.00;0.00;;;;;26.92;42.41;101352.34;5056393;28;45400;-79
2023/09/23 06:35:11;;;;;;;;;0.00;0.00;;;;;26.49;42.44;101288.34;5056663;28;45220;-79
2023/09/23 06:37:36;;;;;;;;;0.33;0.33;;;;;26.91;42.27;101362.19;5056482;28;45312;-79
2023/09/23 06:40:03;;;;;;;;;0.33;0.33;;;;;26.92;42.46;101363.00;5056272;28;46326;-80
2023/09/23 06:42:29;;;;;;;;;2.00;0.00;;;;;26.92;42.62;101371.03;5055783;28;45263;-80
2023/09/23 06:44:54;;;;;;;;;0.33;0.00;;;;;26.80;41.83;101355.59;5054963;28;45415;-80
2023/09/23 06:47:20;;;;;;;;;0.00;0.00;;;;;26.54;42.33;101327.78;5056286;28;45515;-80
2023/09/23 06:49:45;;;;;;;;;0.33;0.33;;;;;26.84;42.04;101380.88;5056093;28;46510;-80
2023/09/23 06:52:11;;;;;;;;;1.00;1.00;;;;;26.49;41.74;101325.69;5056245;28;45374;-80
2023/09/23 06:54:37;;;;;;;;;0.00;0.00;;;;;26.72;41.85;101361.94;5055762;28;45380;-81
2023/09/23 06:57:02;;;;;;;;;1.00;0.00;;;;;26.70;41.81;101363.97;5055843;28;45383;-80
2023/09/23 06:59:27;;;;;;;;;0.00;0.00;;;;;26.77;42.27;101373.84;5055588;28;46977;-80
2023/09/23 07:01:53;;;;;;;;;0.00;0.00;;;;;26.69;42.17;101375.69;5055990;28;45432;-80
2023/09/23 07:04:18;;;;;;;;;0.00;0.00;;;;;26.85;41.89;101392.38;5054504;28;45387;-80
2023/09/23 07:06:44;;;;;;;;;1.00;0.00;;;;;26.90;42.30;101407.78;5056112;28;45337;-80
2023/09/23 07:09:09;;;;;;;;;0.00;0.00;;;;;26.54;42.04;101357.16;5055799;28;45930;-80
2023/09/23 07:11:35;;;;;;;;;1.00;0.67;;;;;26.80;41.76;101402.81;5055375;28;45406;-79
2023/09/23 07:14:03;;;;;;;;;0.00;0.00;;;;;26.92;42.15;101422.56;5056111;28;45383;-80
2023/09/23 07:16:29;;;;;;;;;1.67;1.00;;;;;26.70;41.75;101401.31;5055951;28;45411;-80
2023/09/23 07:18:54;;;;;;;;;0.00;0.00;;;;;26.93;41.53;101426.06;5055279;28;45382;-80
2023/09/23 07:21:19;;;;;;;;;0.00;0.00;;;;;26.88;41.47;101417.84;5055845;28;45338;-80
2023/09/23 07:23:45;;;;;;;;;2.00;0.00;;;;;26.37;42.08;101338.75;5056243;28;45367;-80
2023/09/23 07:26:18;;;;;;;;;0.67;0.00;;;;;26.61;41.57;101381.19;5055644;28;45589;-80
2023/09/23 07:28:43;;;;;;;;;1.00;1.00;;;;;26.86;41.94;101412.69;5071103;28;46322;-80
2023/09/23 07:31:10;;;;;;;;;0.00;0.00;;;;;26.53;42.23;101371.50;5055643;28;45248;-79
2023/09/23 07:33:35;;;;;;;;;0.00;0.00;;;;;26.92;42.26;101427.91;5055856;28;45358;-80
2023/09/23 07:36:09;;;;;;;;;0.00;0.00;;;;;26.70;41.95;101401.31;5055768;28;45481;-80
2023/09/23 07:38:34;;;;;;;;;0.00;0.00;;;;;26.93;42.07;101444.75;5055469;28;46579;-80
2023/09/23 07:40:59;;;;;;;;;0.67;0.67;;;;;26.88;41.78;101439.19;5055393;28;45319;-80
2023/09/23 07:43:25;;;;;;;;;0.00;0.00;;;;;26.65;41.65;101400.31;5050928;28;45341;-80
2023/09/23 07:45:54;;;;;;;;;0.00;0.00;;;;;26.54;41.67;101380.34;5035454;28;45426;-80
2023/09/23 07:48:19;;;;;;;;;1.33;0.00;;;;;26.57;42.07;101399.41;5035076;28;47278;-80
2023/09/23 07:50:45;;;;;;;;;0.00;0.00;;;;;26.88;41.55;101445.34;5035084;28;45462;-80
2023/09/23 07:53:10;;;;;;;;;0.33;0.00;;;;;26.67;41.95;101411.59;5034992;28;45290;-79
2023/09/23 07:55:37;;;;;;;;;0.00;0.00;;;;;26.72;41.69;101425.16;5035393;28;45280;-80
2023/09/23 07:58:02;;;;;;;;;0.00;0.00;;;;;26.95;42.13;101464.06;5042834;28;47280;-80
2023/09/23 08:00:27;;;;;;;;;0.00;0.00;;;;;26.77;41.61;101441.41;5055188;28;45301;-80
2023/09/23 08:02:53;;;;;;;;;1.00;0.00;;;;;26.99;41.39;101475.16;5055406;28;45629;-79
2023/09/23 08:05:18;;;;;;;;;0.67;0.67;;;;;26.99;42.08;101477.84;5056562;28;45532;-80
2023/09/23 08:07:45;;;;;;;;;2.00;0.67;;;;;26.93;41.66;101466.94;5058565;28;46157;-80
2023/09/23 08:10:10;;;;;;;;;0.00;0.00;;;;;26.93;41.50;101464.25;5058645;28;45412;-80
2023/09/23 08:12:36;;;;;;;;;0.00;0.00;;;;;27.08;41.72;101487.34;5058703;28;45329;-80
2023/09/23 08:15:01;;;;;;;;;0.00;0.00;;;;;27.06;41.58;101476.84;5058692;28;45292;-79
2023/09/23 08:17:27;;;;;;;;;0.00;0.00;;;;;27.10;41.79;101477.28;5058671;28;46241;-79
2023/09/23 08:19:53;;;;;;;;;0.00;0.00;;;;;27.27;41.51;101503.69;5058288;28;45450;-80
2023/09/23 08:22:19;;;;;;;;;0.00;0.00;;;;;27.21;42.06;101489.28;5058140;28;45394;-80
2023/09/23 08:24:44;;;;;;;;;0.00;0.00;;;;;27.29;41.97;101498.94;5058756;28;45454;-80
2023/09/23 08:27:10;;;;;;;;;2.00;1.00;;;;;26.77;41.52;101414.72;5058072;28;46588;-80
2023/09/23 08:29:36;;;;;;;;;0.00;0.00;;;;;27.40;41.94;101513.59;5058211;28;45375;-81
2023/09/23 08:32:01;;;;;;;;;0.00;0.00;;;;;27.27;41.70;101493.78;5058340;28;45363;-80
2023/09/23 08:34:27;;;;;;;;;1.00;0.00;;;;;27.20;41.72;101492.13;5058223;28;45419;-80
2023/09/23 08:36:52;;;;;;;;;0.00;0.00;;;;;26.89;41.73;101432.81;5057577;28;46057;-80
2023/09/23 08:39:18;;;;;;;;;0.00;0.00;;;;;26.93;41.49;101439.44;5057998;28;45370;-79
2023/09/23 08:41:54;;;;;;;;;1.00;0.00;;;;;27.49;41.05;101531.06;5056923;28;45384;-80
2023/09/23 08:44:24;;;;;;;;;0.00;0.00;;;;;27.42;41.72;101521.38;5058259;28;45368;-79
2023/09/23 08:46:51;;;;;;;;;0.67;0.67;;;;;27.27;41.74;101495.66;5057807;28;47161;-80
2023/09/23 08:49:21;;;;;;;;;0.00;0.00;;;;;27.58;41.78;101542.41;5057831;28;45402;-80
2023/09/23 08:51:49;;;;;;;;;2.00;0.67;;;;;27.14;41.70;101469.72;5057645;28;45427;-80
2023/09/23 08:54:16;;;;;;;;;0.00;0.00;;;;;27.25;41.12;101485.16;5058094;28;45400;-80
2023/09/23 08:56:42;;;;;;;;;0.00;0.00;;;;;27.53;40.96;101539.53;5057511;28;46276;-80
2023/09/23 08:59:11;;;;;;;;;1.33;0.00;;;;;27.18;41.24;101476.31;5057428;28;45296;-80
2023/09/23 09:01:44;;;;;;;;;0.00;0.00;;;;;27.67;41.37;101558.25;5057918;28;45398;-80
2023/09/23 09:04:12;;;;;;;;;0.00;0.00;;;;;27.69;40.94;101567.72;5057557;28;45217;-80
2023/09/23 09:06:48;;;;;;;;;0.00;0.00;;;;;27.46;41.12;101536.81;5057295;28;45555;-80
2023/09/23 09:09:14;;;;;;;;;0.00;0.00;;;;;27.56;40.94;101544.44;5057601;28;45428;-81
2023/09/23 09:11:39;;;;;;;;;0.00;0.00;;;;;27.67;40.87;101571.63;5057648;28;45356;-80
2023/09/23 09:14:05;;;;;;;;;0.00;0.00;;;;;27.61;41.07;101552.69;5057581;28;45340;-80
2023/09/23 09:16:30;;;;;;;;;0.00;0.00;;;;;27.48;41.12;101540.09;5056946;28;47418;-80
2023/09/23 09:18:56;;;;;;;;;0.00;0.00;;;;;27.77;41.69;101584.59;5057466;28;45382;-80
2023/09/23 09:21:21;;;;;;;;;0.00;0.00;;;;;27.72;41.57;101583.34;5057515;28;45260;-80
2023/09/23 09:23:47;;;;;;;;;0.00;0.00;;;;;27.64;41.38;101564.81;5057855;28;45531;-80
2023/09/23 09:26:12;;;;;;;;;0.00;0.00;;;;;27.77;40.92;101589.94;5057214;28;45367;-80
2023/09/23 09:28:38;;;;;;;;;0.00;0.00;;;;;27.84;40.74;101601.53;5057474;28;45373;-80
2023/09/23 09:31:09;;;;;;;;;0.00;0.00;;;;;27.84;41.34;101602.31;5056130;28;45263;-80
2023/09/23 09:33:37;;;;;;;;;0.00;0.00;;;;;27.86;40.97;101604.81;5057424;28;45292;-80
2023/09/23 09:36:07;;;;;;;;;0.00;0.00;;;;;27.61;41.06;101563.38;5056642;28;45336;-81
2023/09/23 09:38:33;;;;;;;;;1.00;1.00;;;;;27.75;41.42;101587.47;5057027;28;45478;-80
2023/09/23 09:41:04;;;;;;;;;1.00;0.00;;;;;27.86;41.48;101612.84;5057403;28;45396;-80
2023/09/23 09:43:33;;;;;;;;;0.00;0.00;;;;;27.82;41.16;101600.88;5057117;28;45494;-80
2023/09/23 09:46:07;;;;;;;;;0.33;0.33;;;;;27.85;41.42;101609.34;5057134;28;45344;-80
2023/09/23 09:48:37;;;;;;;;;0.00;0.00;;;;;27.77;41.17;101593.44;5056941;28;45439;-80
2023/09/23 09:51:05;;;;;;;;;1.33;0.67;;;;;27.87;41.08;101611.00;5056550;28;45426;-80
2023/09/23 09:53:33;;;;;;;;;1.00;1.00;;;;;27.56;41.10;101570.38;5056790;28;45363;-81
2023/09/23 09:55:58;;;;;;;;;0.33;0.33;;;;;27.40;40.65;101546.44;5056762;28;45678;-81
2023/09/23 09:58:34;;;;;;;;;0.00;0.00;;;;;27.85;41.02;101614.69;5056599;28;45374;-81
2023/09/23 10:01:01;;;;;;;;;0.00;0.00;;;;;27.85;41.10;101619.19;5057091;28;45416;-81
2023/09/23 10:03:28;;;;;;;;;0.00;0.00;;;;;27.67;41.03;101593.00;5056240;28;45522;-81
2023/09/23 10:05:59;;;;;;;;;0.00;0.00;;;;;27.80;40.94;101621.66;5056832;28;46258;-81
2023/09/23 10:08:27;;;;;;;;;0.00;0.00;;;;;27.79;41.13;101623.47;5056714;28;45309;-81
2023/09/23 10:11:02;;;;;;;;;2.33;0.00;;;;;27.83;41.53;101626.59;5056634;28;45251;-80
2023/09/23 10:13:31;;;;;;;;;0.00;0.00;;;;;27.82;40.83;101635.63;5056621;28;45598;-80
2023/09/23 10:16:18;;;;;;;;;0.00;0.00;;;;;27.82;40.78;101625.78;5056546;28;46271;-80
2023/09/23 10:18:53;;;;;;;;;0.00;0.00;;;;;27.77;41.30;101612.16;5056082;28;45379;-80
2023/09/23 10:21:23;;;;;;;;;1.00;0.00;;;;;27.83;40.99;101621.25;5056594;28;45433;-80
2023/09/23 10:23:51;;;;;;;;;0.00;0.00;;;;;27.84;40.96;101620.25;5056532;28;45641;-81
2023/09/23 10:26:19;;;;;;;;;0.33;0.33;;;;;27.66;41.54;101600.22;5054934;28;47289;-80
2023/09/23 10:29:03;;;;;;;;;0.00;0.00;;;;;27.68;40.74;101606.19;5055256;28;45507;-79
2023/09/23 10:31:31;;;;;;;;;2.00;0.00;;;;;27.82;40.95;101632.97;5056301;28;45418;-80
2023/09/23 10:33:57;;;;;;;;;0.00;0.00;;;;;27.55;41.33;101592.75;5056069;28;45277;-81
2023/09/23 10:36:23;;;;;;;;;0.00;0.00;;;;;27.70;41.00;101619.34;5056251;28;45396;-80
2023/09/23 10:38:49;;;;;;;;;0.00;0.00;;;;;27.81;41.21;101642.03;5056204;28;45284;-80
2023/09/23 10:41:15;;;;;;;;;0.00;0.00;;;;;27.73;41.25;101629.63;5056512;28;45379;-80
2023/09/23 10:43:41;;;;;;;;;0.00;0.00;;;;;27.76;41.15;101641.78;5056251;28;45580;-80
2023/09/23 10:46:06;;;;;;;;;0.00;0.00;;;;;27.71;40.93;101632.50;5056255;28;46255;-80
2023/09/23 10:48:32;;;;;;;;;0.67;0.67;;;;;27.76;41.53;101652.47;5055803;28;45403;-81
2023/09/23 10:51:00;;;;;;;;;0.00;0.00;;;;;27.79;41.17;101652.88;5056129;28;45404;-80
2023/09/23 10:53:27;;;;;;;;;0.00;0.00;;;;;27.24;41.05;101578.88;5056113;28;45563;-81
2023/09/23 10:55:55;;;;;;;;;0.00;0.00;;;;;27.78;40.91;101659.25;5056056;28;45509;-81
2023/09/23 10:58:21;;;;;;;;;0.00;0.00;;;;;27.79;41.15;101660.09;5055661;28;45456;-81
2023/09/23 11:00:46;;;;;;;;;0.00;0.00;;;;;27.29;41.41;101584.44;5056081;28;45460;-80
2023/09/23 11:03:16;;;;;;;;;1.33;0.00;;;;;27.76;40.95;101666.66;5055485;28;45492;-80
2023/09/23 11:05:43;;;;;;;;;0.00;0.00;;;;;27.74;40.92;101666.84;5055900;28;47187;-80
2023/09/23 11:08:12;;;;;;;;;0.00;0.00;;;;;27.59;41.35;101637.59;5055855;28;45376;-74
2023/09/23 11:10:42;;;;;;;;;0.00;0.00;;;;;27.74;41.47;101676.72;5056039;28;45334;-74
2023/09/23 11:13:10;;;;;;;;;1.00;1.00;;;;;27.61;38.59;101664.94;5055815;28;45564;-76
2023/09/23 11:15:40;;;;;;;;;1.00;1.00;;;;;27.21;38.15;101630.84;5055628;28;46580;-87
2023/09/23 11:18:15;;;;;;;;;1.00;1.00;;;;;27.27;37.75;101666.63;5054762;28;45301;-87
2023/09/23 11:20:44;;;;;;;;;1.00;1.00;;;;;27.11;37.83;101675.75;5056067;28;45372;-75
2023/09/23 11:23:10;;;;;;;;;1.33;0.67;;;;;27.12;38.72;101685.38;5054757;28;45236;-83